Time;durP1;ratioP1;P1;durP2;ratioP2;P2;SDS_P1;SDS_P2;PMS_P1;PMS_P2;Temp;Humidity;BMP_temperature;BMP_pressure;BME280_temperature;BME280_humidity;BME280_pressure;Samples;Min_cycle;Max_cycle;Signal;HPM_P1;HPM_P2
2022/11/27 00:02:21;;;;;;;15.45;2.67;;;10.20;99.90;;;;;;4952789;28;20038;-79
2022/11/27 00:04:47;;;;;;;18.77;2.08;;;10.20;99.90;;;;;;4947368;28;20039;-79
2022/11/27 00:07:12;;;;;;;28.55;2.97;;;10.10;99.90;;;;;;4950730;28;20233;-79
2022/11/27 00:09:38;;;;;;;20.00;2.47;;;10.10;99.90;;;;;;4953554;28;20422;-79
2022/11/27 00:12:04;;;;;;;14.65;2.35;;;10.10;99.90;;;;;;4960333;28;20035;-79
2022/11/27 00:14:29;;;;;;;16.45;2.15;;;10.10;99.90;;;;;;4962450;28;20045;-80
2022/11/27 00:16:56;;;;;;;21.58;2.35;;;10.10;99.90;;;;;;4954634;28;20633;-78
2022/11/27 00:19:22;;;;;;;20.88;2.85;;;10.10;99.90;;;;;;4942289;28;20079;-80
2022/11/27 00:21:47;;;;;;;24.42;3.38;;;10.10;99.90;;;;;;4956116;28;20098;-80
2022/11/27 00:24:13;;;;;;;16.08;3.45;;;10.20;99.90;;;;;;4958518;28;20035;-79
2022/11/27 00:26:38;;;;;;;22.70;3.25;;;10.30;99.90;;;;;;4956191;28;20202;-79
2022/11/27 00:29:05;;;;;;;22.95;3.72;;;10.30;99.90;;;;;;4949465;28;20130;-78
2022/11/27 00:31:32;;;;;;;25.90;3.42;;;10.30;99.90;;;;;;4956728;28;20129;-78
2022/11/27 00:34:00;;;;;;;36.75;3.55;;;10.40;99.90;;;;;;4948062;28;20039;-79
2022/11/27 00:36:27;;;;;;;23.20;3.55;;;10.40;99.90;;;;;;4950394;28;20095;-78
2022/11/27 00:38:53;;;;;;;27.02;3.88;;;10.40;99.90;;;;;;4950891;28;20114;-79
2022/11/27 00:41:22;;;;;;;15.95;2.75;;;10.40;99.90;;;;;;4961366;28;20379;-77
2022/11/27 00:43:47;;;;;;;23.02;3.65;;;10.40;99.90;;;;;;4964392;28;20062;-77
2022/11/27 00:46:14;;;;;;;22.38;3.58;;;10.40;99.90;;;;;;4965303;28;20074;-79
2022/11/27 00:48:41;;;;;;;19.55;3.67;;;10.40;99.90;;;;;;4965350;28;20480;-80
2022/11/27 00:51:10;;;;;;;23.17;3.03;;;10.50;99.90;;;;;;4962750;28;20023;-80
2022/11/27 00:53:35;;;;;;;25.58;3.17;;;10.40;99.90;;;;;;4962218;28;21453;-81
2022/11/27 00:56:01;;;;;;;24.83;3.33;;;10.50;99.90;;;;;;4964510;28;20038;-82
2022/11/27 00:58:29;;;;;;;29.80;3.17;;;10.50;99.90;;;;;;4964812;28;20538;-81
2022/11/27 01:01:05;;;;;;;23.67;3.00;;;10.50;99.90;;;;;;4964140;28;20398;-79
2022/11/27 01:03:31;;;;;;;22.40;2.42;;;10.50;99.90;;;;;;4963633;28;20019;-80
2022/11/27 01:06:05;;;;;;;18.10;2.83;;;10.50;99.90;;;;;;4962531;28;20077;-81
2022/11/27 01:08:31;;;;;;;25.35;3.60;;;10.50;99.90;;;;;;4963664;28;20499;-80
2022/11/27 01:10:58;;;;;;;14.70;2.28;;;10.50;99.90;;;;;;4960785;28;20466;-80
2022/11/27 01:13:25;;;;;;;24.40;3.15;;;10.60;99.90;;;;;;4947709;28;20451;-79
2022/11/27 01:16:19;;;;;;;24.83;3.17;;;10.60;99.90;;;;;;4965537;28;20023;-78
2022/11/27 01:18:46;;;;;;;16.63;2.45;;;10.50;99.90;;;;;;4959527;28;20513;-81
2022/11/27 01:21:14;;;;;;;25.15;3.00;;;10.60;99.90;;;;;;4963977;28;20081;-79
2022/11/27 01:23:39;;;;;;;17.55;2.90;;;10.60;99.90;;;;;;4961475;28;20321;-81
2022/11/27 01:26:08;;;;;;;28.67;3.50;;;10.60;99.90;;;;;;4945545;28;20129;-80
2022/11/27 01:28:34;;;;;;;21.10;3.90;;;10.60;99.90;;;;;;4961271;28;20030;-79
2022/11/27 01:31:12;;;;;;;21.30;2.85;;;10.60;99.90;;;;;;4953640;28;20058;-80
2022/11/27 01:33:38;;;;;;;14.23;2.88;;;10.70;99.90;;;;;;4959775;28;20110;-80
2022/11/27 01:36:05;;;;;;;34.42;3.05;;;10.70;99.90;;;;;;4945690;28;20165;-81
2022/11/27 01:38:32;;;;;;;23.48;2.95;;;10.70;99.90;;;;;;4963811;28;20343;-83
2022/11/27 01:41:00;;;;;;;28.95;4.10;;;10.60;99.90;;;;;;4963862;28;20195;-81
2022/11/27 01:43:59;;;;;;;17.33;2.90;;;10.70;99.90;;;;;;4958587;28;20031;-80
2022/11/27 01:46:36;;;;;;;27.42;3.35;;;10.70;99.90;;;;;;4901255;28;20423;-81
2022/11/27 01:49:01;;;;;;;16.98;3.03;;;10.80;99.90;;;;;;4964523;28;20594;-82
2022/11/27 01:51:28;;;;;;;16.45;2.97;;;10.80;99.90;;;;;;4964117;28;20035;-81
2022/11/27 01:53:54;;;;;;;26.25;3.25;;;10.80;99.90;;;;;;4960173;28;20034;-81
2022/11/27 01:56:22;;;;;;;25.75;3.58;;;10.80;99.90;;;;;;4964872;28;20524;-82
2022/11/27 01:58:48;;;;;;;23.02;2.97;;;10.90;99.90;;;;;;4966521;28;20101;-83
2022/11/27 02:01:14;;;;;;;25.48;3.38;;;10.90;99.90;;;;;;4965414;28;20121;-81
2022/11/27 02:03:40;;;;;;;15.18;2.45;;;10.90;99.90;;;;;;4959627;28;20039;-80
2022/11/27 02:06:05;;;;;;;24.15;3.08;;;10.90;99.90;;;;;;4947468;28;20042;-81
2022/11/27 02:08:31;;;;;;;22.20;3.13;;;11.00;99.90;;;;;;4965053;28;20062;-82
2022/11/27 02:11:17;;;;;;;21.17;3.00;;;11.00;99.90;;;;;;4948044;28;20365;-83
2022/11/27 02:14:15;;;;;;;24.95;3.33;;;11.00;99.90;;;;;;4962419;28;20416;-83
2022/11/27 02:16:51;;;;;;;18.13;3.08;;;11.00;99.90;;;;;;4933423;28;20144;-83
2022/11/27 02:19:32;;;;;;;19.15;2.55;;;11.10;99.90;;;;;;4962994;28;20037;-84
2022/11/27 02:22:17;;;;;;;28.33;3.13;;;11.10;99.90;;;;;;4963825;28;20045;-83
2022/11/27 02:25:03;;;;;;;24.65;2.88;;;11.10;99.90;;;;;;4964427;28;20097;-80
2022/11/27 02:28:03;;;;;;;18.52;2.97;;;11.10;99.90;;;;;;4962941;28;20041;-79
2022/11/27 02:30:35;;;;;;;19.00;2.67;;;11.10;99.90;;;;;;4963871;28;20502;-82
2022/11/27 02:33:06;;;;;;;12.98;2.38;;;11.10;99.90;;;;;;4960340;28;20049;-85
2022/11/27 02:35:40;;;;;;;18.60;2.40;;;11.10;99.90;;;;;;4941303;28;20288;-82
2022/11/27 02:38:16;;;;;;;25.95;3.08;;;11.10;99.90;;;;;;4962023;28;20363;-83
2022/11/27 02:40:53;;;;;;;26.55;2.67;;;11.10;99.90;;;;;;4958112;28;20133;-82
2022/11/27 02:43:45;;;;;;;11.27;1.88;;;11.10;99.90;;;;;;4947978;28;20023;-82
2022/11/27 02:46:13;;;;;;;21.00;2.58;;;11.20;99.90;;;;;;4951668;28;20054;-82
2022/11/27 02:49:06;;;;;;;16.52;2.53;;;11.20;99.90;;;;;;4964235;28;20125;-82
2022/11/27 02:51:40;;;;;;;16.27;2.85;;;11.20;99.90;;;;;;4961180;28;20254;-81
2022/11/27 02:54:11;;;;;;;24.80;2.58;;;11.20;99.90;;;;;;4964393;28;20089;-82
2022/11/27 02:56:38;;;;;;;23.05;2.95;;;11.20;99.90;;;;;;4956994;28;20022;-83
2022/11/27 02:59:08;;;;;;;14.45;2.95;;;11.20;99.90;;;;;;4962307;28;20122;-81
2022/11/27 03:01:42;;;;;;;16.80;2.47;;;11.20;99.90;;;;;;4962441;28;20090;-85
2022/11/27 03:04:13;;;;;;;17.02;2.58;;;11.20;99.90;;;;;;4963078;28;20085;-84
2022/11/27 03:06:41;;;;;;;;;;;11.20;99.90;;;;;;4964461;28;20033;-83
2022/11/27 03:09:15;;;;;;;15.32;2.10;;;11.20;99.90;;;;;;4953249;28;19978;-84
2022/11/27 03:11:42;;;;;;;15.27;1.83;;;11.20;99.90;;;;;;4960435;28;20031;-84
2022/11/27 03:14:09;;;;;;;15.40;2.40;;;11.20;99.90;;;;;;4963036;28;20403;-84
2022/11/27 03:16:56;;;;;;;15.52;2.72;;;11.30;99.90;;;;;;4976911;28;20042;-84
2022/11/27 03:19:26;;;;;;;11.50;1.80;;;11.30;99.90;;;;;;4970969;28;20070;-80
2022/11/27 03:21:53;;;;;;;8.43;1.63;;;11.30;99.90;;;;;;4962914;28;20038;-81
2022/11/27 03:24:19;;;;;;;15.43;1.58;;;11.30;99.90;;;;;;4964984;28;20039;-82
2022/11/27 03:26:45;;;;;;;9.98;1.65;;;11.30;99.90;;;;;;4963600;28;20064;-82
2022/11/27 03:29:15;;;;;;;11.65;1.50;;;11.40;99.90;;;;;;4958845;28;20433;-83
2022/11/27 03:31:42;;;;;;;9.95;2.13;;;11.40;99.90;;;;;;4962587;28;20092;-83
2022/11/27 03:34:09;;;;;;;15.65;1.85;;;11.40;99.90;;;;;;4964306;28;20035;-82
2022/11/27 03:36:34;;;;;;;17.73;2.00;;;11.40;99.90;;;;;;4962851;28;20039;-82
2022/11/27 03:39:00;;;;;;;16.77;2.13;;;11.40;99.90;;;;;;4964840;28;20031;-82
2022/11/27 03:41:50;;;;;;;7.13;1.30;;;11.40;99.90;;;;;;4963297;28;20070;-81
2022/11/27 03:44:45;;;;;;;11.25;1.90;;;11.40;99.90;;;;;;4962932;28;20023;-82
2022/11/27 03:47:34;;;;;;;14.23;2.75;;;11.50;99.90;;;;;;4962245;28;20117;-81
2022/11/27 03:50:32;;;;;;;14.50;1.95;;;11.50;99.90;;;;;;4954282;28;20023;-85
2022/11/27 03:53:10;;;;;;;8.95;1.42;;;11.50;99.90;;;;;;4939179;28;20225;-81
2022/11/27 03:55:47;;;;;;;14.20;1.92;;;11.50;99.90;;;;;;4963236;28;20030;-81
2022/11/27 03:59:05;;;;;;;12.32;1.80;;;11.50;99.90;;;;;;4960962;28;20079;-81
2022/11/27 04:01:31;;;;;;;18.77;2.60;;;11.50;99.90;;;;;;4931884;28;20058;-81
2022/11/27 04:03:56;;;;;;;13.88;2.13;;;11.50;99.90;;;;;;4963474;28;20031;-82
2022/11/27 04:06:22;;;;;;;15.57;2.13;;;11.60;99.90;;;;;;4963168;28;20093;-81
2022/11/27 04:08:48;;;;;;;14.80;2.40;;;11.60;99.90;;;;;;4962341;28;20145;-81
2022/11/27 04:11:14;;;;;;;8.52;1.80;;;11.60;99.90;;;;;;4963053;28;20023;-82
2022/11/27 04:13:40;;;;;;;15.05;2.20;;;11.60;99.90;;;;;;4962859;28;20045;-85
2022/11/27 04:16:06;;;;;;;12.68;1.88;;;11.60;99.90;;;;;;4946085;28;20123;-81
2022/11/27 04:18:32;;;;;;;12.27;2.10;;;11.60;99.90;;;;;;4965302;28;20031;-81
2022/11/27 04:20:57;;;;;;;11.95;2.10;;;11.60;99.90;;;;;;4964750;28;20392;-81
2022/11/27 04:23:23;;;;;;;13.88;1.60;;;11.60;99.90;;;;;;4959266;28;20424;-81
2022/11/27 04:25:49;;;;;;;9.25;1.73;;;11.60;99.90;;;;;;4943504;28;20121;-80
2022/11/27 04:28:16;;;;;;;6.93;1.58;;;11.60;99.90;;;;;;4954294;28;20046;-80
2022/11/27 04:30:42;;;;;;;5.30;1.30;;;11.70;99.90;;;;;;4951118;28;20034;-81
2022/11/27 04:33:07;;;;;;;12.35;2.35;;;11.60;99.90;;;;;;4966167;28;20044;-84
2022/11/27 04:35:33;;;;;;;14.32;1.92;;;11.70;99.90;;;;;;4966798;28;20042;-82
2022/11/27 04:37:59;;;;;;;9.00;1.75;;;11.70;99.90;;;;;;4963874;28;20101;-80
2022/11/27 04:40:24;;;;;;;13.55;1.98;;;11.70;99.90;;;;;;4966755;28;20091;-80
2022/11/27 04:42:50;;;;;;;18.58;2.28;;;11.70;99.90;;;;;;4965675;28;20368;-81
2022/11/27 04:45:16;;;;;;;13.52;2.00;;;11.70;99.90;;;;;;4974805;28;20077;-81
2022/11/27 04:47:42;;;;;;;13.00;2.75;;;11.80;99.90;;;;;;4962435;28;20342;-81
2022/11/27 04:50:09;;;;;;;11.82;1.88;;;11.80;99.90;;;;;;4963922;28;20031;-81
2022/11/27 04:52:35;;;;;;;11.95;2.17;;;11.80;99.90;;;;;;4963560;28;20351;-81
2022/11/27 04:55:00;;;;;;;18.15;2.50;;;11.80;99.90;;;;;;4963842;28;20037;-81
2022/11/27 04:57:26;;;;;;;13.65;1.80;;;11.90;99.90;;;;;;4957078;28;20042;-82
2022/11/27 04:59:52;;;;;;;16.60;2.70;;;11.90;99.90;;;;;;4964468;28;20160;-83
2022/11/27 05:02:17;;;;;;;19.70;2.75;;;11.90;99.90;;;;;;4964656;28;20063;-81
2022/11/27 05:04:44;;;;;;;10.85;1.70;;;11.90;99.90;;;;;;4964155;28;20301;-82
2022/11/27 05:07:09;;;;;;;11.75;2.03;;;11.90;99.90;;;;;;4964108;28;20146;-82
2022/11/27 05:09:35;;;;;;;13.40;2.10;;;11.90;99.90;;;;;;4966753;28;20546;-81
2022/11/27 05:12:01;;;;;;;10.07;1.50;;;12.00;99.90;;;;;;4954899;28;20521;-81
2022/11/27 05:14:28;;;;;;;10.30;1.50;;;11.90;99.90;;;;;;4948905;28;20062;-80
2022/11/27 05:16:57;;;;;;;7.32;1.23;;;12.00;99.90;;;;;;4962061;28;20110;-82
2022/11/27 05:19:25;;;;;;;9.00;1.50;;;12.00;99.90;;;;;;4959636;28;20129;-83
2022/11/27 05:21:52;;;;;;;10.05;1.25;;;12.00;99.90;;;;;;4963076;28;20027;-82
2022/11/27 05:24:19;;;;;;;7.55;1.50;;;12.00;99.90;;;;;;4965929;28;20027;-82
2022/11/27 05:26:45;;;;;;;11.80;1.58;;;12.00;99.90;;;;;;4965338;28;20105;-80
2022/11/27 05:29:13;;;;;;;13.70;1.77;;;12.00;99.90;;;;;;4956427;28;20042;-83
2022/11/27 05:31:39;;;;;;;12.13;1.52;;;12.00;99.90;;;;;;4964359;28;20035;-83
2022/11/27 05:34:05;;;;;;;13.48;1.42;;;12.00;99.90;;;;;;4964665;28;20053;-82
2022/11/27 05:36:31;;;;;;;4.35;1.15;;;12.10;99.90;;;;;;4964707;28;20083;-81
2022/11/27 05:38:56;;;;;;;8.25;2.20;;;12.10;99.90;;;;;;4963289;28;20038;-82
2022/11/27 05:41:22;;;;;;;9.98;1.50;;;12.10;99.90;;;;;;4964482;28;20542;-82
2022/11/27 05:43:48;;;;;;;4.85;1.27;;;12.10;99.90;;;;;;4964330;28;20034;-82
2022/11/27 05:46:17;;;;;;;4.40;0.95;;;12.10;99.90;;;;;;4963848;28;20451;-82
2022/11/27 05:48:43;;;;;;;6.63;0.93;;;12.10;99.90;;;;;;4965193;28;20031;-82
2022/11/27 05:51:09;;;;;;;3.85;1.00;;;12.10;99.90;;;;;;4964096;28;20039;-81
2022/11/27 05:53:34;;;;;;;7.28;1.23;;;12.10;99.90;;;;;;4965699;28;20057;-81
2022/11/27 05:56:02;;;;;;;5.40;1.13;;;12.20;99.90;;;;;;4964051;28;20502;-82
2022/11/27 05:58:28;;;;;;;10.43;1.33;;;12.20;99.90;;;;;;4962396;28;20093;-79
2022/11/27 06:00:53;;;;;;;10.45;1.33;;;12.20;99.90;;;;;;4963391;28;20042;-81
2022/11/27 06:03:19;;;;;;;8.80;1.25;;;12.20;99.90;;;;;;4961472;28;20117;-81
2022/11/27 06:05:44;;;;;;;7.78;1.98;;;12.20;99.90;;;;;;4963566;28;20038;-80
2022/11/27 06:08:10;;;;;;;4.85;1.08;;;12.20;99.90;;;;;;4960058;28;20133;-81
2022/11/27 06:10:38;;;;;;;10.05;1.30;;;12.20;99.90;;;;;;4953563;28;20034;-82
2022/11/27 06:13:04;;;;;;;7.43;1.27;;;12.20;99.90;;;;;;4960432;28;20030;-82
2022/11/27 06:15:29;;;;;;;7.28;0.93;;;12.20;99.90;;;;;;4963820;28;20117;-82
2022/11/27 06:17:55;;;;;;;2.78;0.70;;;12.20;99.90;;;;;;4951953;28;20039;-83
2022/11/27 06:20:21;;;;;;;5.70;0.73;;;12.20;99.90;;;;;;4949375;28;20090;-83
2022/11/27 06:22:47;;;;;;;6.40;0.90;;;12.20;99.90;;;;;;4961067;28;20501;-81
2022/11/27 06:25:12;;;;;;;5.03;0.73;;;12.30;99.90;;;;;;4956352;28;20239;-81
2022/11/27 06:27:38;;;;;;;4.30;0.68;;;12.30;99.90;;;;;;4956794;28;20035;-83
2022/11/27 06:30:05;;;;;;;5.18;0.88;;;12.30;99.90;;;;;;4959122;28;20584;-81
2022/11/27 06:32:31;;;;;;;5.47;0.88;;;12.30;99.90;;;;;;4959839;28;20170;-81
2022/11/27 06:34:56;;;;;;;2.83;0.70;;;12.30;99.90;;;;;;4941423;28;20481;-81
2022/11/27 06:37:22;;;;;;;5.82;0.73;;;12.30;99.90;;;;;;4939227;28;20047;-81
2022/11/27 06:39:49;;;;;;;4.28;0.70;;;12.40;99.90;;;;;;4955632;28;20042;-81
2022/11/27 06:42:14;;;;;;;4.93;0.80;;;12.30;99.90;;;;;;4955134;28;20038;-81
2022/11/27 06:44:40;;;;;;;4.68;0.68;;;12.30;99.90;;;;;;4957937;28;20117;-82
2022/11/27 06:47:06;;;;;;;5.43;0.63;;;12.40;99.90;;;;;;4961321;28;20471;-82
2022/11/27 06:49:32;;;;;;;4.80;0.50;;;12.30;99.90;;;;;;4959194;28;20039;-81
2022/11/27 06:51:58;;;;;;;3.67;0.80;;;12.30;99.90;;;;;;4955368;28;20048;-81
2022/11/27 06:54:23;;;;;;;4.13;0.52;;;12.30;99.90;;;;;;4951811;28;20062;-81
2022/11/27 06:56:49;;;;;;;6.07;0.93;;;12.30;99.90;;;;;;4947777;28;20075;-83
2022/11/27 06:59:16;;;;;;;3.25;0.43;;;12.30;99.90;;;;;;4956402;28;20042;-82
2022/11/27 07:01:42;;;;;;;2.28;0.50;;;12.40;99.90;;;;;;4957804;28;20035;-82
2022/11/27 07:04:11;;;;;;;2.63;0.50;;;12.40;99.90;;;;;;4957112;28;20641;-82
2022/11/27 07:06:36;;;;;;;4.47;0.40;;;12.30;99.90;;;;;;4948317;28;20034;-80
2022/11/27 07:09:03;;;;;;;5.53;0.57;;;12.40;99.90;;;;;;4953301;28;20344;-82
2022/11/27 07:11:30;;;;;;;4.07;0.88;;;12.40;99.90;;;;;;4937705;28;20035;-81
2022/11/27 07:13:59;;;;;;;2.10;0.50;;;12.40;99.90;;;;;;4948292;28;20031;-84
2022/11/27 07:16:26;;;;;;;5.78;0.75;;;12.40;99.90;;;;;;4944287;28;20039;-82
2022/11/27 07:18:54;;;;;;;9.25;1.05;;;12.40;99.90;;;;;;4951007;28;20031;-80
2022/11/27 07:21:20;;;;;;;3.70;0.70;;;12.40;99.90;;;;;;4959140;28;20294;-82
2022/11/27 07:23:46;;;;;;;9.10;1.08;;;12.40;99.90;;;;;;4955277;28;20056;-82
2022/11/27 07:26:13;;;;;;;7.13;1.30;;;12.40;99.90;;;;;;4953255;28;20035;-82
2022/11/27 07:28:38;;;;;;;13.55;1.33;;;12.50;99.90;;;;;;4940943;28;20304;-81
2022/11/27 07:31:05;;;;;;;6.03;1.00;;;12.50;99.90;;;;;;4942359;28;20092;-81
2022/11/27 07:33:31;;;;;;;9.15;1.05;;;12.50;99.90;;;;;;4951987;28;20505;-82
2022/11/27 07:36:06;;;;;;;7.20;1.30;;;12.50;99.90;;;;;;4951477;28;20294;-82
2022/11/27 07:38:32;;;;;;;11.77;1.63;;;12.50;99.90;;;;;;4955189;28;20031;-81
2022/11/27 07:41:00;;;;;;;7.60;1.25;;;12.50;99.90;;;;;;4951812;28;20569;-83
2022/11/27 07:43:26;;;;;;;9.05;1.10;;;12.60;99.90;;;;;;4954669;28;20414;-83
2022/11/27 07:45:52;;;;;;;11.10;1.10;;;12.50;99.90;;;;;;4955172;28;20047;-82
2022/11/27 07:48:17;;;;;;;15.38;1.60;;;12.50;99.90;;;;;;4953614;28;20044;-83
2022/11/27 07:50:43;;;;;;;10.15;1.30;;;12.50;99.90;;;;;;4954374;28;20525;-84
2022/11/27 07:53:09;;;;;;;8.80;1.20;;;12.60;99.90;;;;;;4960177;28;20037;-84
2022/11/27 07:55:38;;;;;;;10.25;1.02;;;12.60;99.90;;;;;;4960444;28;20097;-84
2022/11/27 07:58:03;;;;;;;10.20;1.20;;;12.60;99.90;;;;;;4954639;28;20019;-84
2022/11/27 08:00:29;;;;;;;5.15;1.13;;;12.60;99.90;;;;;;4964226;28;20155;-83
2022/11/27 08:02:54;;;;;;;10.35;1.48;;;12.60;99.90;;;;;;4955439;28;20126;-83
2022/11/27 08:05:20;;;;;;;8.00;1.20;;;12.70;99.90;;;;;;4938398;28;20433;-83
2022/11/27 08:07:45;;;;;;;6.68;1.30;;;12.70;99.90;;;;;;4956121;28;20355;-82
2022/11/27 08:10:11;;;;;;;8.77;1.02;;;12.70;99.90;;;;;;4958810;28;20026;-83
2022/11/27 08:12:37;;;;;;;4.63;1.00;;;12.70;99.90;;;;;;4946526;28;20798;-83
2022/11/27 08:15:04;;;;;;;9.02;1.10;;;12.70;99.90;;;;;;4958426;28;20077;-82
2022/11/27 08:17:30;;;;;;;5.47;0.85;;;12.70;99.90;;;;;;4953657;28;20035;-83
2022/11/27 08:19:55;;;;;;;5.85;1.00;;;12.70;99.90;;;;;;4958753;28;20161;-83
2022/11/27 08:22:21;;;;;;;3.90;0.75;;;12.80;99.90;;;;;;4952004;28;20124;-82
2022/11/27 08:24:47;;;;;;;4.85;1.00;;;12.80;99.90;;;;;;4961083;28;20039;-83
2022/11/27 08:27:14;;;;;;;5.75;0.60;;;12.80;99.90;;;;;;4951973;28;20042;-82
2022/11/27 08:29:40;;;;;;;4.70;0.88;;;12.80;99.90;;;;;;4960025;28;20030;-82
2022/11/27 08:32:05;;;;;;;4.20;0.88;;;12.90;99.90;;;;;;4957420;28;20050;-82
2022/11/27 08:34:31;;;;;;;12.02;1.17;;;12.90;99.90;;;;;;4958614;28;20045;-82
2022/11/27 08:36:57;;;;;;;8.57;1.15;;;12.90;99.90;;;;;;4947534;28;20023;-82
2022/11/27 08:39:25;;;;;;;7.65;1.10;;;13.00;99.90;;;;;;4958426;28;20402;-81
2022/11/27 08:41:51;;;;;;;10.77;1.30;;;12.90;99.90;;;;;;4954322;28;20030;-83
2022/11/27 08:44:16;;;;;;;9.38;1.52;;;13.00;99.90;;;;;;4953654;28;20086;-82
2022/11/27 08:46:42;;;;;;;8.43;1.30;;;13.10;99.90;;;;;;4953327;28;20058;-82
2022/11/27 08:49:08;;;;;;;10.27;1.80;;;13.10;99.90;;;;;;4956990;28;20078;-82
2022/11/27 08:51:34;;;;;;;9.30;1.50;;;13.10;99.90;;;;;;4958052;28;20042;-81
2022/11/27 08:54:00;;;;;;;8.35;1.30;;;13.10;99.90;;;;;;4961250;28;20035;-82
2022/11/27 08:56:26;;;;;;;10.18;1.52;;;13.20;99.90;;;;;;4958102;28;20521;-83
2022/11/27 08:58:52;;;;;;;8.70;1.30;;;13.20;99.90;;;;;;4962579;28;20063;-82
2022/11/27 09:01:21;;;;;;;12.80;1.83;;;13.20;99.90;;;;;;4966301;28;20133;-82
2022/11/27 09:03:47;;;;;;;12.65;1.70;;;13.20;99.90;;;;;;4963600;28;20105;-82
2022/11/27 09:06:16;;;;;;;10.50;1.55;;;13.20;99.90;;;;;;4958396;28;20037;-82
2022/11/27 09:08:42;;;;;;;6.57;1.25;;;13.20;99.90;;;;;;4956714;28;20418;-83
2022/11/27 09:11:09;;;;;;;8.35;1.33;;;13.20;99.90;;;;;;4964992;28;20097;-84
2022/11/27 09:13:36;;;;;;;5.85;1.40;;;13.20;99.90;;;;;;4965844;28;20030;-85
2022/11/27 09:16:03;;;;;;;6.72;1.30;;;13.20;99.90;;;;;;4967753;28;20092;-83
2022/11/27 09:18:29;;;;;;;8.77;1.75;;;13.30;99.90;;;;;;4949875;28;20042;-82
2022/11/27 09:21:03;;;;;;;6.85;1.38;;;13.40;99.90;;;;;;4965592;28;20053;-83
2022/11/27 09:23:29;;;;;;;4.75;1.40;;;13.40;99.90;;;;;;4962702;28;20042;-84
2022/11/27 09:26:03;;;;;;;9.90;1.35;;;13.50;99.90;;;;;;4956750;28;20138;-84
2022/11/27 09:28:30;;;;;;;8.45;1.13;;;13.50;99.90;;;;;;4957360;28;20035;-83
2022/11/27 09:30:56;;;;;;;9.80;1.23;;;13.50;99.90;;;;;;4947864;28;20034;-83
2022/11/27 09:33:23;;;;;;;5.65;1.20;;;13.60;99.90;;;;;;4965381;28;20065;-84
2022/11/27 09:35:49;;;;;;;5.82;1.10;;;13.60;99.90;;;;;;4962091;28;20034;-83
2022/11/27 09:38:15;;;;;;;7.78;1.02;;;13.60;99.90;;;;;;4966306;28;20376;-83
2022/11/27 09:40:51;;;;;;;6.63;1.63;;;13.60;99.90;;;;;;4964089;28;20105;-83
2022/11/27 09:43:27;;;;;;;5.60;1.10;;;13.60;99.90;;;;;;4961593;28;20027;-83
2022/11/27 09:45:57;;;;;;;6.20;1.05;;;13.60;99.90;;;;;;4948247;28;20065;-83
2022/11/27 09:48:37;;;;;;;7.07;1.17;;;13.60;99.90;;;;;;4965422;28;20112;-82
2022/11/27 09:51:17;;;;;;;4.13;0.95;;;13.60;99.90;;;;;;4947051;28;22358;-82
2022/11/27 09:53:49;;;;;;;6.72;0.90;;;13.50;99.90;;;;;;4961820;28;20133;-83
2022/11/27 09:56:16;;;;;;;4.30;0.80;;;13.50;99.90;;;;;;4961773;28;20035;-83
2022/11/27 09:59:03;;;;;;;7.43;1.48;;;13.50;99.90;;;;;;4958068;28;20126;-82
2022/11/27 10:01:32;;;;;;;7.63;1.75;;;13.50;99.90;;;;;;4937609;28;20469;-83
2022/11/27 10:04:01;;;;;;;6.28;2.00;;;13.50;99.90;;;;;;4952409;28;20030;-82
2022/11/27 10:06:33;;;;;;;4.07;1.30;;;13.60;99.90;;;;;;4956551;28;20113;-83
2022/11/27 10:09:08;;;;;;;6.43;1.60;;;13.60;99.90;;;;;;4952497;28;20030;-83
2022/11/27 10:11:48;;;;;;;6.90;1.40;;;13.70;99.90;;;;;;4967076;28;20393;-83
2022/11/27 10:14:35;;;;;;;7.73;1.77;;;13.80;99.90;;;;;;4959997;28;20190;-82
2022/11/27 10:17:16;;;;;;;12.05;1.70;;;13.90;99.90;;;;;;4943060;28;20031;-84
2022/11/27 10:20:19;;;;;;;6.82;1.60;;;13.90;99.90;;;;;;4959368;28;20030;-82
2022/11/27 10:23:16;;;;;;;10.00;1.63;;;14.00;99.90;;;;;;4915878;28;20430;-83
2022/11/27 10:25:51;;;;;;;7.60;1.90;;;14.00;99.90;;;;;;4951928;28;20344;-83
2022/11/27 10:28:52;;;;;;;7.30;1.83;;;14.10;99.90;;;;;;4960529;28;20030;-83
2022/11/27 10:31:30;;;;;;;9.00;2.50;;;14.10;99.90;;;;;;4954251;28;20020;-83
2022/11/27 10:34:01;;;;;;;6.28;2.05;;;14.20;99.90;;;;;;4941051;28;20043;-82
2022/11/27 10:36:35;;;;;;;7.25;2.53;;;14.20;99.90;;;;;;4941399;28;20063;-83
2022/11/27 10:39:03;;;;;;;9.77;2.78;;;14.30;99.90;;;;;;4952996;28;20027;-82
2022/11/27 10:41:36;;;;;;;2.42;1.70;;;14.30;99.90;;;;;;4948358;28;20043;-83
2022/11/27 10:44:27;;;;;;;7.18;2.50;;;14.40;99.90;;;;;;4969804;28;20035;-83
2022/11/27 10:47:00;;;;;;;11.30;2.10;;;14.50;99.90;;;;;;4943306;28;20394;-83
2022/11/27 10:49:25;;;;;;;9.07;2.47;;;14.60;99.90;;;;;;4951911;28;20026;-83
2022/11/27 10:51:51;;;;;;;11.35;2.58;;;14.70;99.90;;;;;;4963213;28;20096;-83
2022/11/27 10:54:26;;;;;;;8.10;2.60;;;14.80;99.90;;;;;;4956804;28;20118;-81
2022/11/27 10:57:29;;;;;;;9.50;3.15;;;14.90;99.90;;;;;;4955982;28;20034;-82
2022/11/27 11:00:10;;;;;;;8.93;3.22;;;15.00;99.90;;;;;;4954225;28;20058;-83
2022/11/27 11:02:38;;;;;;;12.13;2.40;;;15.10;99.90;;;;;;4947095;28;20095;-83
2022/11/27 11:05:22;;;;;;;11.60;2.22;;;15.10;99.90;;;;;;4963470;28;20039;-83
2022/11/27 11:08:01;;;;;;;13.52;2.25;;;15.10;99.90;;;;;;4955988;28;20032;-82
2022/11/27 11:10:43;;;;;;;11.55;2.67;;;15.10;99.90;;;;;;4951712;28;20038;-83
2022/11/27 11:13:15;;;;;;;9.95;2.00;;;15.20;99.90;;;;;;4954169;28;20430;-82
2022/11/27 11:15:49;;;;;;;10.68;1.95;;;15.30;99.90;;;;;;4958502;28;20093;-82
2022/11/27 11:18:17;;;;;;;13.60;1.65;;;15.40;99.90;;;;;;4946925;28;20376;-83
2022/11/27 11:20:55;;;;;;;10.00;1.48;;;15.60;99.90;;;;;;4965381;28;20042;-84
2022/11/27 11:23:37;;;;;;;14.43;1.90;;;15.70;99.90;;;;;;4947417;28;20479;-83
2022/11/27 11:26:24;;;;;;;14.43;2.30;;;15.60;99.90;;;;;;4963112;28;20387;-83
2022/11/27 11:28:53;;;;;;;15.77;1.83;;;15.50;99.90;;;;;;4948877;28;20039;-84
2022/11/27 11:31:26;;;;;;;13.88;2.30;;;15.50;99.90;;;;;;4965179;28;20035;-84
2022/11/27 11:33:58;;;;;;;17.00;2.15;;;15.40;99.90;;;;;;4961502;28;20031;-84
2022/11/27 11:36:23;;;;;;;22.10;2.83;;;15.50;99.90;;;;;;4965670;28;20063;-83
2022/11/27 11:38:50;;;;;;;20.42;3.20;;;15.50;99.90;;;;;;4946096;28;20042;-83
2022/11/27 11:41:17;;;;;;;14.75;2.30;;;15.50;99.90;;;;;;4964853;28;20070;-83
2022/11/27 11:43:57;;;;;;;16.67;2.28;;;15.50;99.90;;;;;;4961417;28;20031;-83
2022/11/27 11:46:27;;;;;;;15.35;2.38;;;15.50;99.90;;;;;;4947105;28;20036;-83
2022/11/27 11:49:06;;;;;;;15.60;2.15;;;15.40;99.90;;;;;;4964902;28;20026;-83
2022/11/27 11:52:05;;;;;;;21.70;2.70;;;15.40;99.90;;;;;;4953341;28;20020;-83
2022/11/27 11:54:56;;;;;;;12.60;2.20;;;15.20;99.90;;;;;;4946775;28;20110;-83
2022/11/27 11:57:39;;;;;;;15.30;1.73;;;15.30;99.90;;;;;;4946824;28;20031;-83
2022/11/27 12:00:16;;;;;;;15.90;2.50;;;15.00;99.90;;;;;;4950903;28;20073;-84
2022/11/27 12:03:09;;;;;;;13.93;2.45;;;14.90;99.90;;;;;;4965324;28;20097;-83
2022/11/27 12:06:12;;;;;;;16.20;2.28;;;14.90;99.90;;;;;;4964829;28;20037;-83
2022/11/27 12:08:55;;;;;;;19.70;2.63;;;14.80;99.90;;;;;;4959415;28;20042;-84
2022/11/27 12:11:31;;;;;;;18.63;1.98;;;14.70;99.90;;;;;;4956179;28;20073;-84
2022/11/27 12:14:15;;;;;;;18.33;1.98;;;14.70;99.90;;;;;;4957262;28;20641;-85
2022/11/27 12:16:56;;;;;;;13.60;1.98;;;14.80;99.90;;;;;;4952430;28;20367;-83
2022/11/27 12:19:38;;;;;;;14.10;2.08;;;14.70;99.90;;;;;;4956583;28;20031;-83
2022/11/27 12:22:06;;;;;;;18.58;2.60;;;14.60;99.90;;;;;;4955557;28;20071;-83
2022/11/27 12:24:51;;;;;;;20.73;2.80;;;14.60;99.90;;;;;;4955645;28;20146;-83
2022/11/27 12:27:17;;;;;;;12.82;1.83;;;14.60;99.90;;;;;;4940683;28;20031;-83
2022/11/27 12:30:09;;;;;;;17.05;2.10;;;14.60;99.90;;;;;;4957923;28;20034;-83
2022/11/27 12:32:49;;;;;;;16.00;2.15;;;14.70;99.90;;;;;;4954439;28;20121;-83
2022/11/27 12:35:18;;;;;;;20.98;2.13;;;14.70;99.90;;;;;;4958090;28;20103;-83
2022/11/27 12:38:02;;;;;;;13.60;2.28;;;14.80;99.90;;;;;;4944404;28;20038;-83
2022/11/27 12:41:11;;;;;;;12.60;1.92;;;14.90;99.90;;;;;;4949157;28;20288;-84
2022/11/27 12:43:43;;;;;;;12.75;2.22;;;14.90;99.90;;;;;;4962181;28;20038;-83
2022/11/27 12:46:25;;;;;;;15.38;2.20;;;14.80;99.90;;;;;;4962032;28;20027;-83
2022/11/27 12:48:54;;;;;;;;;;;14.80;99.90;;;;;;4961380;28;20035;-83
2022/11/27 12:51:38;;;;;;;17.58;2.40;;;14.70;99.90;;;;;;4964992;28;19993;-82
2022/11/27 12:54:31;;;;;;;15.38;1.73;;;14.60;99.90;;;;;;4965968;28;20039;-82
2022/11/27 12:57:06;;;;;;;18.05;2.08;;;14.50;99.90;;;;;;4960135;28;20038;-83
2022/11/27 12:59:42;;;;;;;15.63;2.45;;;14.30;99.90;;;;;;4964935;28;20055;-82
2022/11/27 13:02:38;;;;;;;16.25;2.40;;;14.20;99.90;;;;;;4963927;28;20167;-83